Time;durP1;ratioP1;P1;durP2;ratioP2;P2;SDS_P1;SDS_P2;PMS_P1;PMS_P2;Temp;Humidity;BMP_temperature;BMP_pressure;BME280_temperature;BME280_humidity;BME280_pressure;Samples;Min_cycle;Max_cycle;Signal;HPM_P1;HPM_P2
2023/08/17 00:02:13;;;;;;;8.57;3.70;;;;;;;22.39;57.27;94034.63;5023232;28;20048;-80
2023/08/17 00:04:39;;;;;;;9.90;3.30;;;;;;;22.32;57.61;94041.97;5023021;28;20117;-80
2023/08/17 00:07:05;;;;;;;6.32;3.38;;;;;;;22.23;57.75;94039.59;5022977;28;20022;-80
2023/08/17 00:09:31;;;;;;;13.73;4.25;;;;;;;22.11;58.68;94037.97;5021898;28;20208;-80
2023/08/17 00:11:57;;;;;;;6.80;3.53;;;;;;;22.06;58.89;94043.00;5022961;28;20097;-80
2023/08/17 00:14:22;;;;;;;12.80;3.42;;;;;;;22.00;59.15;94039.88;5021171;28;20022;-80
2023/08/17 00:16:50;;;;;;;10.77;3.72;;;;;;;21.97;59.60;94037.94;5021987;28;20025;-80
2023/08/17 00:19:15;;;;;;;10.27;3.85;;;;;;;21.89;59.51;94036.34;5022843;28;20124;-80
2023/08/17 00:21:41;;;;;;;7.60;3.42;;;;;;;21.87;58.96;94036.72;5022946;28;20037;-80
2023/08/17 00:24:06;;;;;;;13.65;3.70;;;;;;;21.83;58.62;94042.13;5022870;28;20026;-80
2023/08/17 00:26:32;;;;;;;8.98;3.42;;;;;;;21.79;58.56;94041.31;5021801;28;20025;-80
2023/08/17 00:28:57;;;;;;;10.35;3.55;;;;;;;21.77;58.56;94038.22;5021109;28;20024;-80
2023/08/17 00:31:23;;;;;;;4.90;2.95;;;;;;;21.72;58.48;94041.31;5022973;28;20376;-80
2023/08/17 00:33:48;;;;;;;11.43;3.10;;;;;;;21.72;58.79;94041.31;5022991;28;20022;-80
2023/08/17 00:36:14;;;;;;;10.40;3.05;;;;;;;21.66;58.62;94042.81;5022662;28;20022;-80
2023/08/17 00:38:39;;;;;;;12.68;3.35;;;;;;;21.64;58.83;94039.69;5022897;28;20025;-80
2023/08/17 00:41:04;;;;;;;13.68;2.75;;;;;;;21.58;58.80;94046.63;5022871;28;20343;-80
2023/08/17 00:43:30;;;;;;;6.65;2.92;;;;;;;21.53;58.88;94038.84;5022731;28;20028;-80
2023/08/17 00:45:55;;;;;;;10.65;3.38;;;;;;;21.48;58.96;94031.84;5022854;28;20029;-79
2023/08/17 00:48:21;;;;;;;4.78;2.65;;;;;;;21.43;58.74;94035.72;5021492;28;20029;-79
2023/08/17 00:50:49;;;;;;;4.80;2.47;;;;;;;21.41;58.57;94035.28;5022974;28;20018;-80
2023/08/17 00:53:16;;;;;;;10.32;2.28;;;;;;;21.39;57.50;94024.03;5022583;28;20050;-79
2023/08/17 00:55:42;;;;;;;14.77;3.22;;;;;;;21.38;56.59;94033.31;5022653;28;20295;-80
2023/08/17 00:58:07;;;;;;;8.90;2.85;;;;;;;21.39;56.35;94034.06;5022776;28;20045;-80
2023/08/17 01:00:33;;;;;;;8.70;2.65;;;;;;;21.38;56.04;94027.88;5022549;28;20026;-80
2023/08/17 01:02:59;;;;;;;6.93;2.70;;;;;;;21.35;55.52;94025.16;5022509;28;20033;-79
2023/08/17 01:05:24;;;;;;;9.63;3.05;;;;;;;21.33;55.24;94030.97;5022601;28;20049;-80
2023/08/17 01:07:50;;;;;;;9.25;2.95;;;;;;;21.32;55.17;94026.69;5022597;28;20084;-80
2023/08/17 01:10:16;;;;;;;8.88;2.83;;;;;;;21.32;54.96;94023.97;5022484;28;20243;-80
2023/08/17 01:13:10;;;;;;;7.13;2.72;;;;;;;21.30;54.58;94029.00;5022536;28;20105;-80
2023/08/17 01:15:38;;;;;;;7.22;2.70;;;;;;;21.27;54.52;94026.25;5022340;28;20033;-79
2023/08/17 01:18:33;;;;;;;5.90;2.50;;;;;;;21.23;54.28;94018.13;5022461;28;20014;-80
2023/08/17 01:21:00;;;;;;;13.57;2.47;;;;;;;21.20;54.13;94018.84;5021480;28;20018;-79
2023/08/17 01:23:25;;;;;;;6.40;2.42;;;;;;;21.19;54.36;94015.38;5021424;28;20028;-79
2023/08/17 01:25:51;;;;;;;9.15;2.80;;;;;;;21.21;55.03;94017.72;5020924;28;20045;-80
2023/08/17 01:28:16;;;;;;;7.88;3.97;;;;;;;21.20;54.95;94027.75;5021312;28;20120;-80
2023/08/17 01:31:19;;;;;;;10.50;2.60;;;;;;;21.14;54.99;94006.81;5022203;28;20018;-79
2023/08/17 01:33:49;;;;;;;8.75;3.10;;;;;;;21.15;54.72;94019.22;5022230;28;20022;-79
2023/08/17 01:36:35;;;;;;;8.02;2.10;;;;;;;21.10;54.26;94006.00;5022240;28;20097;-80
2023/08/17 01:39:02;;;;;;;9.05;2.80;;;;;;;21.10;54.26;94017.63;5022207;28;20022;-80
2023/08/17 01:41:28;;;;;;;6.93;2.42;;;;;;;21.11;53.70;94013.78;5025349;28;20312;-80
2023/08/17 01:43:54;;;;;;;4.65;2.53;;;;;;;21.08;53.37;94009.09;5025647;28;20369;-79
2023/08/17 01:46:21;;;;;;;4.32;2.17;;;;;;;21.07;52.17;94017.63;5025719;28;20025;-79
2023/08/17 01:48:46;;;;;;;7.32;2.20;;;;;;;21.09;52.27;94009.88;5025580;28;20026;-79
2023/08/17 01:51:19;;;;;;;6.35;1.90;;;;;;;21.09;51.61;94009.88;5025461;28;20024;-80
2023/08/17 01:53:45;;;;;;;4.20;2.05;;;;;;;21.11;50.63;94008.34;5057398;28;20017;-80
2023/08/17 01:56:10;;;;;;;6.13;2.25;;;;;;;21.13;49.56;94006.03;5024273;28;20049;-79
2023/08/17 01:58:36;;;;;;;4.18;1.88;;;;;;;21.14;48.53;94006.81;5025358;28;20244;-80
2023/08/17 02:01:01;;;;;;;8.55;1.88;;;;;;;21.14;48.18;94002.16;5025278;28;20304;-80
2023/08/17 02:03:28;;;;;;;4.57;1.95;;;;;;;21.23;48.46;94009.97;5025380;28;20041;-79
2023/08/17 02:05:56;;;;;;;3.95;2.10;;;;;;;21.24;50.14;94012.31;5025417;28;20018;-80
2023/08/17 02:08:22;;;;;;;15.38;2.53;;;;;;;21.22;51.64;94013.84;5025174;28;20212;-80
2023/08/17 02:10:47;;;;;;;5.35;2.15;;;;;;;21.16;52.42;94009.94;5025261;28;20045;-80
2023/08/17 02:13:13;;;;;;;4.75;2.40;;;;;;;21.14;52.44;94012.22;5025181;28;20326;-79
2023/08/17 02:15:39;;;;;;;5.75;1.98;;;;;;;21.07;52.20;94012.97;5024006;28;20235;-80
2023/08/17 02:18:05;;;;;;;5.72;2.63;;;;;;;21.03;52.75;94012.94;5024883;28;20053;-80
2023/08/17 02:20:30;;;;;;;6.25;2.20;;;;;;;20.99;52.85;94012.13;5024865;28;20072;-80
2023/08/17 02:22:56;;;;;;;4.13;2.17;;;;;;;20.99;53.29;94005.94;5025146;28;20026;-80
2023/08/17 02:25:21;;;;;;;5.05;2.40;;;;;;;20.92;53.50;94012.06;5024892;28;20021;-80
2023/08/17 02:27:47;;;;;;;6.63;2.50;;;;;;;20.89;53.55;94002.00;5023873;28;20040;-80
2023/08/17 02:30:13;;;;;;;4.88;2.22;;;;;;;20.88;53.24;94003.13;5024784;28;20018;-79
2023/08/17 02:32:38;;;;;;;6.85;2.38;;;;;;;20.81;54.07;94001.16;5024788;28;20026;-80
2023/08/17 02:35:04;;;;;;;7.05;2.65;;;;;;;20.74;54.64;94003.81;5024677;28;20089;-80
2023/08/17 02:37:30;;;;;;;6.15;2.47;;;;;;;20.68;54.74;94001.78;5023548;28;20324;-80
2023/08/17 02:39:56;;;;;;;5.15;2.70;;;;;;;20.60;54.90;94007.16;5024606;28;20029;-80
2023/08/17 02:42:22;;;;;;;6.15;2.20;;;;;;;20.48;55.36;94001.22;5024657;28;20025;-80
2023/08/17 02:44:47;;;;;;;10.10;2.53;;;;;;;20.46;55.04;94006.22;5024855;28;20028;-79
2023/08/17 02:47:13;;;;;;;7.45;2.10;;;;;;;20.37;55.67;94007.31;5024432;28;20320;-80
2023/08/17 02:49:38;;;;;;;5.65;2.72;;;;;;;20.33;55.52;94003.75;5024375;28;20211;-79
2023/08/17 02:52:04;;;;;;;8.05;2.72;;;;;;;20.29;55.54;94007.59;5023892;28;20061;-80
2023/08/17 02:54:31;;;;;;;11.52;3.10;;;;;;;20.19;55.94;93999.00;5023259;28;20022;-79
2023/08/17 02:56:57;;;;;;;4.68;2.55;;;;;;;20.16;56.38;94002.44;5024390;28;20036;-79
2023/08/17 02:59:22;;;;;;;11.63;3.00;;;;;;;20.12;56.60;93998.13;5024266;28;20025;-79
2023/08/17 03:01:47;;;;;;;7.18;2.25;;;;;;;20.10;56.77;93995.78;5024266;28;20029;-79
2023/08/17 03:04:13;;;;;;;8.52;2.65;;;;;;;20.08;56.85;93992.69;5024073;28;20022;-79
2023/08/17 03:06:39;;;;;;;10.38;2.30;;;;;;;20.00;57.54;93996.44;5024176;28;20032;-80
2023/08/17 03:09:04;;;;;;;9.75;2.60;;;;;;;19.97;57.25;93992.56;5024159;28;20013;-79
2023/08/17 03:11:30;;;;;;;6.75;2.13;;;;;;;19.95;56.55;94004.91;5023765;28;20045;-79
2023/08/17 03:13:59;;;;;;;9.82;2.33;;;;;;;19.87;56.24;93995.94;5024191;28;20038;-80
2023/08/17 03:16:26;;;;;;;7.40;2.30;;;;;;;19.91;55.91;93993.28;5023813;28;20324;-79
2023/08/17 03:18:52;;;;;;;9.60;2.35;;;;;;;19.88;55.56;93999.41;5023869;28;20097;-79
2023/08/17 03:21:18;;;;;;;11.43;2.05;;;;;;;19.83;55.37;93998.59;5024001;28;20279;-80
2023/08/17 03:23:43;;;;;;;5.03;2.20;;;;;;;19.81;55.33;93998.16;5022770;28;20037;-80
2023/08/17 03:26:09;;;;;;;6.35;2.00;;;;;;;19.79;55.23;94005.88;5023833;28;20034;-79
2023/08/17 03:28:35;;;;;;;7.82;1.90;;;;;;;19.81;55.03;94000.88;5023641;28;20049;-80
2023/08/17 03:31:01;;;;;;;15.27;2.28;;;;;;;19.71;55.06;94001.53;5023419;28;20025;-79
2023/08/17 03:33:27;;;;;;;5.47;2.25;;;;;;;19.72;54.96;93994.19;5023851;28;20030;-79
2023/08/17 03:35:52;;;;;;;6.35;2.38;;;;;;;19.71;55.16;94001.53;5023687;28;20026;-79
2023/08/17 03:38:18;;;;;;;7.88;1.92;;;;;;;19.73;55.02;94001.94;5023882;28;20056;-80
2023/08/17 03:40:43;;;;;;;8.98;2.20;;;;;;;19.68;55.72;94013.03;5023442;28;20323;-79
2023/08/17 03:43:09;;;;;;;5.40;2.28;;;;;;;19.65;55.90;94011.06;5023635;28;20036;-80
2023/08/17 03:45:34;;;;;;;4.30;1.85;;;;;;;19.67;55.70;94010.72;5023453;28;20092;-79
2023/08/17 03:48:00;;;;;;;6.93;2.28;;;;;;;19.68;55.29;94007.63;5022328;28;20319;-80
2023/08/17 03:50:27;;;;;;;7.47;2.13;;;;;;;19.71;54.62;94012.34;5023341;28;20097;-79
2023/08/17 03:52:53;;;;;;;7.13;2.20;;;;;;;19.70;54.75;94008.06;5023391;28;20021;-80
2023/08/17 03:55:18;;;;;;;9.20;2.00;;;;;;;19.71;54.04;94017.75;5023522;28;20053;-79
2023/08/17 03:57:44;;;;;;;5.30;2.20;;;;;;;19.76;53.68;94019.34;5023233;28;20197;-79
2023/08/17 04:00:10;;;;;;;5.65;2.20;;;;;;;19.80;53.35;94025.59;5023106;28;20048;-80
2023/08/17 04:02:37;;;;;;;6.30;2.17;;;;;;;19.82;53.45;94029.50;5022412;28;20028;-79
2023/08/17 04:05:03;;;;;;;8.65;1.95;;;;;;;19.79;53.71;94030.22;5023346;28;20197;-80
2023/08/17 04:07:28;;;;;;;8.90;2.30;;;;;;;19.83;53.62;94027.56;5023205;28;20067;-80
2023/08/17 04:09:53;;;;;;;5.35;2.47;;;;;;;19.84;53.52;94016.38;5022927;28;20053;-80
2023/08/17 04:12:19;;;;;;;8.40;2.55;;;;;;;19.86;53.93;94028.75;5023203;28;20100;-79
2023/08/17 04:14:45;;;;;;;17.50;2.38;;;;;;;19.92;53.61;94036.16;5023142;28;20022;-79
2023/08/17 04:17:11;;;;;;;13.07;2.40;;;;;;;19.95;53.55;94021.16;5023075;28;20033;-79
2023/08/17 04:19:37;;;;;;;10.30;2.35;;;;;;;19.98;53.17;94023.09;5022797;28;20339;-79
2023/08/17 04:22:02;;;;;;;8.73;2.20;;;;;;;20.02;53.50;94026.63;5021727;28;20026;-79
2023/08/17 04:24:28;;;;;;;5.68;2.40;;;;;;;20.08;53.15;94027.84;5023062;28;20308;-79
2023/08/17 04:26:53;;;;;;;4.50;1.98;;;;;;;20.14;53.20;94029.06;5021783;28;20049;-79
2023/08/17 04:29:19;;;;;;;8.02;2.03;;;;;;;20.23;52.79;94023.38;5022973;28;20018;-80
2023/08/17 04:31:45;;;;;;;5.32;2.05;;;;;;;20.30;52.30;94022.69;5022790;28;20041;-80
2023/08/17 04:34:11;;;;;;;7.35;2.58;;;;;;;20.37;51.71;94025.47;5022875;28;20029;-79
2023/08/17 04:36:36;;;;;;;5.65;2.58;;;;;;;20.42;51.93;94022.44;5022785;28;20224;-79
2023/08/17 04:39:04;;;;;;;6.80;2.33;;;;;;;20.49;51.90;94014.34;5022810;28;20205;-79
2023/08/17 04:41:29;;;;;;;12.45;1.85;;;;;;;20.56;51.46;94024.50;5022588;28;20030;-79
2023/08/17 04:43:55;;;;;;;12.90;2.15;;;;;;;20.67;51.64;94017.28;5022642;28;20373;-80
2023/08/17 04:46:20;;;;;;;11.45;2.85;;;;;;;20.75;51.81;94018.88;5022942;28;20212;-80
2023/08/17 04:48:46;;;;;;;14.63;2.30;;;;;;;20.83;51.80;94014.31;5022645;28;20026;-80
2023/08/17 04:51:11;;;;;;;9.43;2.40;;;;;;;20.94;51.86;94015.16;5022601;28;20034;-80
2023/08/17 04:53:37;;;;;;;8.02;2.10;;;;;;;21.05;51.50;94020.69;5021615;28;20255;-80
2023/08/17 04:56:03;;;;;;;9.57;2.30;;;;;;;21.16;51.09;94020.75;5022646;28;20022;-80
2023/08/17 04:58:29;;;;;;;13.98;3.60;;;;;;;21.27;51.75;94018.91;5022595;28;20026;-80
2023/08/17 05:00:54;;;;;;;12.02;2.60;;;;;;;21.40;52.12;94012.00;5022372;28;20092;-80
2023/08/17 05:03:20;;;;;;;19.83;2.25;;;;;;;21.49;51.54;94016.34;5022715;28;20022;-80
2023/08/17 05:05:45;;;;;;;13.98;2.78;;;;;;;21.56;51.08;94016.41;5022636;28;20029;-80
2023/08/17 05:08:11;;;;;;;6.82;2.05;;;;;;;21.63;51.41;94017.22;5022410;28;20030;-80
2023/08/17 05:10:36;;;;;;;5.32;2.25;;;;;;;21.75;51.04;94015.34;5022308;28;20287;-80
2023/08/17 05:13:02;;;;;;;13.90;2.70;;;;;;;21.80;51.25;94023.91;5022399;28;20104;-80
2023/08/17 05:15:27;;;;;;;12.82;2.58;;;;;;;21.89;50.99;94022.78;5025864;28;20021;-79
2023/08/17 05:17:53;;;;;;;8.73;2.40;;;;;;;22.00;50.37;94018.16;5025987;28;20044;-80
2023/08/17 05:20:20;;;;;;;13.25;2.15;;;;;;;22.11;50.64;94018.97;5026264;28;20052;-80
2023/08/17 05:22:46;;;;;;;12.65;2.60;;;;;;;22.18;50.58;94019.00;5026044;28;20105;-80
2023/08/17 05:25:11;;;;;;;15.05;3.60;;;;;;;22.08;49.84;94027.88;5026054;28;20072;-80
2023/08/17 05:27:37;;;;;;;7.63;2.42;;;;;;;22.08;49.27;94019.72;5025988;28;20018;-80
2023/08/17 05:30:02;;;;;;;17.27;3.03;;;;;;;22.16;50.67;94026.75;5025889;28;20018;-80
2023/08/17 05:32:28;;;;;;;19.02;4.25;;;;;;;22.19;53.78;94022.50;5025606;28;20036;-81
2023/08/17 05:34:53;;;;;;;10.30;2.60;;;;;;;22.17;54.47;94031.03;5025935;28;20022;-80
2023/08/17 05:37:19;;;;;;;13.35;3.40;;;;;;;22.11;54.91;94023.63;5025947;28;20032;-80
2023/08/17 05:39:47;;;;;;;14.02;3.92;;;;;;;21.94;55.56;94027.81;5024408;28;20097;-80
2023/08/17 05:42:12;;;;;;;16.77;3.65;;;;;;;21.88;55.50;94032.06;5025639;28;20018;-80
2023/08/17 05:44:38;;;;;;;17.38;4.40;;;;;;;21.92;56.09;94030.13;5025775;28;20068;-79
2023/08/17 05:47:03;;;;;;;13.15;3.90;;;;;;;21.95;56.13;94030.16;5025643;28;20028;-80
2023/08/17 05:49:29;;;;;;;9.60;3.63;;;;;;;21.95;55.81;94037.53;5025586;28;20028;-79
2023/08/17 05:51:54;;;;;;;14.73;3.45;;;;;;;22.00;56.07;94026.28;5024198;28;20236;-80
2023/08/17 05:54:20;;;;;;;12.63;3.10;;;;;;;21.99;55.38;94043.75;5024598;28;20335;-80
2023/08/17 05:56:47;;;;;;;11.57;5.00;;;;;;;22.06;56.12;94032.13;5025430;28;20021;-79
2023/08/17 05:59:13;;;;;;;8.38;3.58;;;;;;;21.99;55.44;94038.31;5025241;28;20045;-80
2023/08/17 06:01:39;;;;;;;21.08;4.80;;;;;;;22.00;56.31;94045.28;5025243;28;20041;-80
2023/08/17 06:04:05;;;;;;;10.45;3.63;;;;;;;21.97;55.80;94040.63;5024091;28;20026;-80
2023/08/17 06:06:30;;;;;;;10.75;3.65;;;;;;;22.02;56.74;94042.97;5025309;28;20045;-79
2023/08/17 06:08:56;;;;;;;8.90;3.95;;;;;;;22.01;56.45;94046.84;5025165;28;20316;-79
2023/08/17 06:11:21;;;;;;;19.30;4.03;;;;;;;22.07;56.86;94045.34;5024694;28;20050;-80
2023/08/17 06:13:47;;;;;;;18.73;4.15;;;;;;;22.11;55.88;94051.56;5023825;28;20072;-80
2023/08/17 06:16:12;;;;;;;9.60;3.13;;;;;;;22.13;56.48;94043.81;5025032;28;20224;-80
2023/08/17 06:18:38;;;;;;;20.02;3.92;;;;;;;22.18;56.60;94043.44;5025065;28;20029;-80
2023/08/17 06:21:04;;;;;;;11.45;4.28;;;;;;;22.22;55.93;94041.50;5024790;28;20121;-80
2023/08/17 06:23:29;;;;;;;19.13;4.18;;;;;;;22.38;55.38;94045.84;5024725;28;20025;-80
2023/08/17 06:25:58;;;;;;;9.48;3.38;;;;;;;22.51;55.81;94046.28;5024089;28;20025;-80
2023/08/17 06:28:25;;;;;;;11.50;2.80;;;;;;;22.60;53.65;94042.03;5024930;28;20017;-80
2023/08/17 06:30:59;;;;;;;10.38;3.40;;;;;;;22.73;53.69;94042.44;5024773;28;20407;-80
2023/08/17 06:37:10;;;;;;;11.95;3.50;;;;;;;22.95;52.14;94043.22;4983179;28;20031;-80
2023/08/17 06:44:30;;;;;;;;;;;;;;;;;;;;;
2023/08/17 06:48:02;;;;;;;;;;;;;;;;;;;;;
2023/08/17 07:01:36;;;;;;;8.13;3.30;;;;;;;24.16;48.66;94049.72;4964059;28;20110;-80
2023/08/17 07:05:04;;;;;;;;;;;;;;;;;;;;;
2023/08/17 07:08:06;;;;;;;11.27;2.95;;;;;;;24.46;48.27;94042.94;4983156;28;20368;-80
2023/08/17 07:11:10;;;;;;;;;;;;;;;;;;;;;
2023/08/17 07:14:38;;;;;;;;;;;;;;;;;;;;;
2023/08/17 07:17:51;;;;;;;;;;;;;;;;;;;;;
2023/08/17 07:24:43;;;;;;;9.13;3.22;;;;;;;24.82;43.98;94042.78;5007027;28;20105;-80
2023/08/17 07:31:25;;;;;;;10.65;2.60;;;;;;;25.09;44.99;94034.03;5023406;28;20093;-80
2023/08/17 07:34:57;;;;;;;;;;;;;;;;;;;;;
2023/08/17 07:38:09;;;;;;;;;;;;;;;;;;;;;
2023/08/17 07:48:38;;;;;;;12.48;2.42;;;;;;;25.56;41.87;94037.91;4943980;29;20587;-80
2023/08/17 07:51:46;;;;;;;3.92;2.25;;;;;;;25.72;42.18;94037.38;4933756;29;20058;-82
2023/08/17 07:55:09;;;;;;;12.38;2.92;;;;;;;25.82;41.35;94041.94;4934479;29;20062;-80
2023/08/17 08:05:15;;;;;;;;;;;;;;;;;;;;;
2023/08/17 08:11:40;;;;;;;8.07;3.00;;;;;;;26.20;42.48;94022.06;4904835;29;20092;-80
2023/08/17 08:14:53;;;;;;;;;;;;;;;;;;;;;
2023/08/17 08:18:17;;;;;;;7.53;2.97;;;;;;;26.44;42.53;94017.47;4922506;29;20062;-80
2023/08/17 08:21:54;;;;;;;8.18;3.13;;;;;;;26.55;43.04;94011.84;4886663;29;20049;-80
2023/08/17 08:27:51;;;;;;;12.68;3.45;;;;;;;26.33;42.77;94011.34;4883360;29;20107;-81
2023/08/17 08:30:18;;;;;;;7.78;2.55;;;;;;;26.46;43.23;94020.56;4871575;29;20335;-80
2023/08/17 08:32:43;;;;;;;11.85;2.97;;;;;;;26.62;42.89;94019.97;4891906;29;20092;-80
2023/08/17 08:35:09;;;;;;;10.68;3.45;;;;;;;26.76;42.13;94010.78;4999181;28;20348;-80
2023/08/17 08:37:34;;;;;;;12.57;3.00;;;;;;;26.88;42.21;94021.16;4985145;28;20034;-80
2023/08/17 08:40:00;;;;;;;28.27;4.55;;;;;;;26.96;41.64;94019.84;5000992;28;20050;-80
2023/08/17 08:42:25;;;;;;;8.23;2.97;;;;;;;27.02;42.16;94017.44;5001298;28;20030;-80
2023/08/17 08:44:51;;;;;;;8.85;3.15;;;;;;;26.95;41.51;94012.09;4995502;28;20065;-80
2023/08/17 08:47:17;;;;;;;5.05;2.72;;;;;;;27.08;41.46;94018.50;4983657;28;20224;-80
2023/08/17 08:49:52;;;;;;;5.90;2.72;;;;;;;27.17;41.22;94015.22;4985680;28;20029;-80
2023/08/17 08:52:23;;;;;;;6.47;2.95;;;;;;;27.16;41.59;94009.00;4986549;28;20026;-80
2023/08/17 08:54:51;;;;;;;5.50;2.80;;;;;;;27.32;41.48;94019.31;4987492;28;20034;-80
2023/08/17 08:57:17;;;;;;;7.28;2.88;;;;;;;27.41;41.42;94008.59;4987480;28;20085;-80
2023/08/17 08:59:46;;;;;;;10.90;2.88;;;;;;;27.50;41.73;94013.53;4987243;28;20050;-80
2023/08/17 09:02:16;;;;;;;10.57;2.92;;;;;;;27.56;40.60;94014.59;4987336;28;20233;-80
2023/08/17 09:04:45;;;;;;;7.22;2.53;;;;;;;27.60;40.28;94004.38;4987262;28;20031;-80
2023/08/17 09:07:12;;;;;;;12.40;3.00;;;;;;;27.64;40.84;94009.78;4987187;28;20046;-80
2023/08/17 09:09:38;;;;;;;11.98;2.95;;;;;;;27.70;40.60;93996.34;4987173;28;20015;-80
2023/08/17 09:12:06;;;;;;;16.33;3.08;;;;;;;27.76;40.36;94000.94;5022746;28;20056;-80
2023/08/17 09:14:32;;;;;;;5.28;2.50;;;;;;;27.84;40.03;93992.59;5026111;28;20018;-80
2023/08/17 09:16:58;;;;;;;7.60;3.15;;;;;;;27.88;40.04;93985.09;5026196;28;20132;-80
2023/08/17 09:19:25;;;;;;;6.65;2.97;;;;;;;27.92;39.88;93991.28;5024729;28;20026;-81
2023/08/17 09:21:50;;;;;;;4.65;2.42;;;;;;;27.99;39.16;93985.69;5026210;28;20044;-80
2023/08/17 09:24:16;;;;;;;8.63;2.70;;;;;;;28.01;39.28;93986.03;5026026;28;20018;-80
2023/08/17 09:26:41;;;;;;;6.32;3.00;;;;;;;28.11;38.79;93976.03;5025978;28;20026;-80
2023/08/17 09:29:20;;;;;;;6.32;2.65;;;;;;;27.97;38.50;93977.88;5025835;28;20033;-80
2023/08/17 09:31:47;;;;;;;9.50;2.78;;;;;;;28.11;38.53;93982.28;5025928;28;20072;-80
2023/08/17 09:34:15;;;;;;;5.10;2.10;;;;;;;28.24;38.71;93973.44;5025888;28;20026;-80
2023/08/17 09:36:40;;;;;;;4.78;2.20;;;;;;;28.37;38.71;93966.88;5025796;28;20064;-80
2023/08/17 09:39:06;;;;;;;9.10;2.72;;;;;;;28.48;37.94;93965.88;5025638;28;20247;-80
2023/08/17 09:41:38;;;;;;;8.15;2.33;;;;;;;28.56;37.86;93956.31;5024569;28;20033;-80
2023/08/17 09:44:04;;;;;;;10.35;2.63;;;;;;;28.52;37.17;93963.84;5025707;28;20045;-80
2023/08/17 09:46:30;;;;;;;12.65;2.38;;;;;;;28.65;36.57;93961.19;5025675;28;20030;-81
2023/08/17 09:48:55;;;;;;;3.35;2.03;;;;;;;28.51;37.00;93965.78;5024487;28;20045;-81
2023/08/17 09:51:20;;;;;;;4.63;2.25;;;;;;;28.64;37.49;93963.19;5025672;28;20026;-81
2023/08/17 09:53:52;;;;;;;5.53;2.20;;;;;;;28.67;36.67;93953.31;5025832;28;20359;-80
2023/08/17 09:56:21;;;;;;;8.68;2.10;;;;;;;28.80;36.73;93949.47;5025588;28;20026;-81
2023/08/17 09:58:47;;;;;;;4.10;1.75;;;;;;;28.90;35.52;93942.19;5025485;28;20197;-80
2023/08/17 10:01:13;;;;;;;5.32;2.00;;;;;;;29.00;36.05;93948.59;5024246;28;20071;-80
2023/08/17 10:03:43;;;;;;;5.10;1.90;;;;;;;29.15;34.25;93940.84;5025367;28;20026;-81
2023/08/17 10:06:12;;;;;;;4.68;2.42;;;;;;;29.26;34.58;93952.28;5025341;28;20227;-81
2023/08/17 10:08:43;;;;;;;6.57;2.20;;;;;;;29.31;33.74;93943.56;5025122;28;20296;-81
2023/08/17 10:11:10;;;;;;;3.75;2.00;;;;;;;29.46;33.51;93943.94;5025507;28;20041;-81
2023/08/17 10:14:08;;;;;;;7.35;1.98;;;;;;;29.54;34.07;93947.28;5025109;28;20022;-81
2023/08/17 10:16:53;;;;;;;6.10;2.20;;;;;;;29.70;32.89;93936.25;5024788;28;20103;-81
2023/08/17 10:19:56;;;;;;;5.65;2.00;;;;;;;29.86;33.10;93934.66;5023844;28;20097;-81
2023/08/17 10:22:36;;;;;;;10.35;2.25;;;;;;;29.98;32.83;93945.69;5013348;28;20054;-81
2023/08/17 10:25:02;;;;;;;8.05;2.10;;;;;;;30.09;32.94;93936.38;5025008;28;20291;-81
2023/08/17 10:27:28;;;;;;;6.55;1.45;;;;;;;30.13;32.18;93935.06;5024670;28;20029;-81
2023/08/17 10:29:55;;;;;;;7.80;2.00;;;;;;;30.19;32.47;93938.78;5024965;28;20026;-81
2023/08/17 10:32:24;;;;;;;4.32;1.75;;;;;;;30.24;32.38;93934.72;5025051;28;20025;-81
2023/08/17 10:34:52;;;;;;;7.95;1.73;;;;;;;30.33;32.32;93936.88;5024925;28;20068;-81
2023/08/17 10:37:19;;;;;;;9.45;2.00;;;;;;;30.38;32.57;93928.06;5023425;28;20300;-81
2023/08/17 10:39:46;;;;;;;7.22;2.15;;;;;;;30.37;31.12;93927.31;5024692;28;20026;-81
2023/08/17 10:42:11;;;;;;;7.65;2.08;;;;;;;30.40;31.98;93931.16;5024608;28;20056;-81
2023/08/17 10:44:43;;;;;;;4.53;2.08;;;;;;;30.49;32.07;93930.47;5024426;28;20031;-80
2023/08/17 10:47:26;;;;;;;5.82;2.10;;;;;;;30.57;31.82;93932.59;5024554;28;20259;-81
2023/08/17 10:50:24;;;;;;;11.98;1.88;;;;;;;30.64;31.02;93922.56;5024570;28;20025;-81
2023/08/17 10:52:53;;;;;;;6.22;1.90;;;;;;;30.68;30.36;93917.72;5024141;28;20034;-81
2023/08/17 10:55:36;;;;;;;8.88;2.03;;;;;;;30.77;30.66;93923.31;5024626;28;20063;-81
2023/08/17 10:58:01;;;;;;;7.32;1.77;;;;;;;30.76;30.41;93910.78;5024091;28;20326;-81
2023/08/17 11:00:33;;;;;;;5.13;1.55;;;;;;;30.67;29.47;93910.69;5024155;28;20076;-81
2023/08/17 11:03:11;;;;;;;5.53;1.75;;;;;;;30.57;30.46;93913.34;5024220;28;20021;-81
2023/08/17 11:05:37;;;;;;;5.53;1.63;;;;;;;30.60;29.76;93909.69;5024217;28;20029;-80
2023/08/17 11:08:09;;;;;;;8.52;1.75;;;;;;;30.71;29.73;93908.59;5023918;28;20050;-81
2023/08/17 11:10:35;;;;;;;6.80;2.20;;;;;;;30.83;29.75;93907.78;5024212;28;20323;-81
2023/08/17 11:13:01;;;;;;;4.75;1.73;;;;;;;30.86;29.43;93904.19;5023789;28;20084;-81
2023/08/17 11:15:38;;;;;;;3.35;1.70;;;;;;;30.65;29.96;93911.13;5023870;28;20033;-81
2023/08/17 11:18:05;;;;;;;8.07;1.70;;;;;;;30.58;29.81;93908.59;5024032;28;20041;-81
2023/08/17 11:20:31;;;;;;;4.03;1.55;;;;;;;30.71;29.81;93911.34;5023899;28;20022;-81
2023/08/17 11:22:58;;;;;;;4.57;1.60;;;;;;;30.77;29.30;93904.81;5023956;28;20029;-80
2023/08/17 11:25:25;;;;;;;3.45;1.90;;;;;;;30.98;29.25;93892.41;5023580;28;20096;-80
2023/08/17 11:27:50;;;;;;;5.85;1.80;;;;;;;31.17;28.77;93895.31;5023927;28;20343;-81
2023/08/17 11:30:16;;;;;;;3.67;1.73;;;;;;;31.27;28.90;93901.69;5022659;28;20022;-81
2023/08/17 11:32:41;;;;;;;6.30;1.58;;;;;;;31.42;28.61;93899.97;5023805;28;20027;-81
2023/08/17 11:35:07;;;;;;;7.78;2.33;;;;;;;31.42;28.41;93894.44;5023696;28;20021;-81
2023/08/17 11:37:33;;;;;;;6.80;1.70;;;;;;;31.45;29.29;93890.84;5023438;28;20028;-81
2023/08/17 11:39:58;;;;;;;5.63;1.42;;;;;;;31.54;28.60;93874.38;5023662;28;20237;-81
2023/08/17 11:42:24;;;;;;;8.40;2.40;;;;;;;31.71;29.61;93886.00;5023593;28;20041;-81
2023/08/17 11:44:50;;;;;;;9.25;2.95;;;;;;;31.81;28.37;93886.78;5023603;28;20086;-81
2023/08/17 11:47:15;;;;;;;9.40;1.63;;;;;;;31.88;28.26;93877.50;5023356;28;20021;-81
2023/08/17 11:49:41;;;;;;;5.63;1.73;;;;;;;31.95;27.77;93874.47;5023458;28;20038;-82
2023/08/17 11:52:10;;;;;;;11.00;2.13;;;;;;;32.10;28.32;93878.28;5023419;28;20026;-82
2023/08/17 11:54:40;;;;;;;6.50;2.10;;;;;;;32.21;28.78;93877.84;5023292;28;20037;-81
2023/08/17 11:57:05;;;;;;;6.95;2.33;;;;;;;32.22;29.35;93878.63;5023240;28;20335;-82
2023/08/17 11:59:32;;;;;;;9.57;2.42;;;;;;;32.14;29.25;93878.91;5023014;28;20030;-82
2023/08/17 12:01:58;;;;;;;8.65;2.58;;;;;;;31.88;29.49;93883.78;5022022;28;20032;-82
2023/08/17 12:04:24;;;;;;;10.00;2.83;;;;;;;32.04;30.16;93882.84;5023143;28;20049;-82
2023/08/17 12:06:49;;;;;;;6.03;2.35;;;;;;;32.15;30.68;93879.66;5023399;28;20311;-82
2023/08/17 12:09:16;;;;;;;12.30;1.98;;;;;;;32.08;30.19;93875.19;5022860;28;20029;-81
2023/08/17 12:11:41;;;;;;;5.95;2.20;;;;;;;32.02;30.42;93871.50;5022896;28;20088;-81
2023/08/17 12:14:11;;;;;;;6.85;2.55;;;;;;;32.09;29.95;93876.72;5023064;28;20018;-81
2023/08/17 12:16:51;;;;;;;9.48;2.83;;;;;;;32.29;30.16;93873.59;5023035;28;20021;-81
2023/08/17 12:19:16;;;;;;;7.32;2.67;;;;;;;32.42;29.83;93876.25;5021861;28;20316;-81
2023/08/17 12:21:42;;;;;;;13.02;2.67;;;;;;;32.46;29.70;93870.59;5022889;28;20021;-81
2023/08/17 12:24:14;;;;;;;7.82;2.83;;;;;;;32.58;29.98;93870.50;5022154;28;20094;-81
2023/08/17 12:26:48;;;;;;;11.68;2.95;;;;;;;32.86;29.44;93867.06;5022872;28;20021;-81
2023/08/17 12:29:14;;;;;;;7.05;2.20;;;;;;;32.92;30.01;93862.47;5022843;28;20014;-81
2023/08/17 12:31:39;;;;;;;16.33;2.55;;;;;;;32.92;29.57;93857.72;5022862;28;20098;-81
2023/08/17 12:34:05;;;;;;;10.85;2.25;;;;;;;32.94;29.14;93857.28;5022750;28;20228;-81
2023/08/17 12:36:35;;;;;;;13.00;2.50;;;;;;;33.14;28.90;93865.16;5022584;28;20212;-81
2023/08/17 12:39:01;;;;;;;8.95;2.30;;;;;;;33.27;29.19;93868.50;5022413;28;20032;-81
2023/08/17 12:41:26;;;;;;;14.18;2.55;;;;;;;33.62;29.05;93870.97;5022590;28;20344;-81
2023/08/17 12:43:58;;;;;;;5.13;2.55;;;;;;;33.67;28.07;93875.16;5022699;28;20053;-81
2023/08/17 12:46:23;;;;;;;8.93;2.95;;;;;;;33.72;27.94;93866.97;5022569;28;20153;-81
2023/08/17 12:48:49;;;;;;;5.43;2.78;;;;;;;33.75;28.78;93871.59;5022763;28;20034;-81